Time;durP1;ratioP1;P1;durP2;ratioP2;P2;SDS_P1;SDS_P2;PMS_P1;PMS_P2;Temp;Humidity;BMP_temperature;BMP_pressure;BME280_temperature;BME280_humidity;BME280_pressure;Samples;Min_cycle;Max_cycle;Signal;HPM_P1;HPM_P2
2024/01/14 00:00:00;;;;;;;29.50;19.20;;;;;;;-5.90;100.00;99610.27;87701;271;22565;-71
2024/01/14 00:02:09;;;;;;;31.60;18.10;;;;;;;-5.90;100.00;99605.48;87255;270;22551;-71
2024/01/14 00:04:12;;;;;;;31.10;21.10;;;;;;;-5.93;100.00;99599.09;87015;277;137375;-73
2024/01/14 00:06:14;;;;;;;29.00;17.60;;;;;;;-5.93;100.00;99596.16;86869;271;24023;-71
2024/01/14 00:08:17;;;;;;;30.60;18.90;;;;;;;-5.93;100.00;99592.21;87203;271;137466;-72
2024/01/14 00:10:18;;;;;;;36.90;18.70;;;;;;;-5.92;100.00;99589.89;87337;278;25326;-71
2024/01/14 00:12:20;;;;;;;39.50;20.40;;;;;;;-5.97;100.00;99586.80;87246;271;138803;-69
2024/01/14 00:14:22;;;;;;;30.90;17.20;;;;;;;-5.96;100.00;99586.36;87340;271;24011;-69
2024/01/14 00:16:24;;;;;;;24.80;16.30;;;;;;;-5.93;100.00;99579.73;87197;267;138482;-70
2024/01/14 00:18:26;;;;;;;33.00;18.50;;;;;;;-5.91;100.00;99580.14;87313;278;22564;-71
2024/01/14 00:20:28;;;;;;;31.60;16.80;;;;;;;-5.83;100.00;99581.69;86979;273;138035;-71
2024/01/14 00:22:30;;;;;;;30.90;20.10;;;;;;;-5.83;100.00;99576.11;87342;271;22577;-70
2024/01/14 00:24:33;;;;;;;30.00;17.90;;;;;;;-5.78;100.00;99577.67;87066;268;136610;-71
2024/01/14 00:26:35;;;;;;;32.30;18.10;;;;;;;-5.71;100.00;99577.20;87373;271;24148;-72
2024/01/14 00:28:40;;;;;;;26.10;15.50;;;;;;;-5.60;100.00;99576.19;87214;267;137237;-72
2024/01/14 00:30:42;;;;;;;27.60;17.90;;;;;;;-5.61;100.00;99568.94;87312;267;22619;-70
2024/01/14 00:32:44;;;;;;;30.10;16.40;;;;;;;-5.65;100.00;99564.52;87193;278;138551;-72
2024/01/14 00:34:46;;;;;;;25.70;16.50;;;;;;;-5.71;100.00;99564.09;87395;271;22571;-71
2024/01/14 00:36:48;;;;;;;29.00;18.50;;;;;;;-5.78;100.00;99559.69;87309;267;138555;-73
2024/01/14 00:38:50;;;;;;;26.10;16.10;;;;;;;-5.75;100.00;99560.56;87233;267;22568;-71
2024/01/14 00:40:52;;;;;;;28.20;18.30;;;;;;;-5.73;100.00;99561.08;87151;271;137236;-71
2024/01/14 00:42:55;;;;;;;22.10;15.30;;;;;;;-5.71;100.00;99554.19;87259;271;22639;-69
2024/01/14 00:44:57;;;;;;;28.50;17.30;;;;;;;-5.76;100.00;99548.97;87169;270;137338;-72
2024/01/14 00:46:59;;;;;;;32.00;19.20;;;;;;;-5.78;100.00;99548.77;87173;274;24660;-71
2024/01/14 00:49:00;;;;;;;25.50;16.10;;;;;;;-5.78;100.00;99548.61;87084;270;138686;-72
2024/01/14 00:51:03;;;;;;;30.60;17.20;;;;;;;-5.80;100.00;99545.11;87042;271;22680;-72
2024/01/14 00:53:04;;;;;;;32.00;18.50;;;;;;;-5.80;100.00;99539.25;87030;268;137082;-71
2024/01/14 00:55:08;;;;;;;30.70;17.40;;;;;;;-5.81;100.00;99532.43;87153;271;22558;-71
2024/01/14 00:57:10;;;;;;;27.50;17.50;;;;;;;-5.81;100.00;99529.27;87310;276;137093;-70
2024/01/14 00:59:12;;;;;;;36.20;17.20;;;;;;;-5.81;100.00;99524.64;87336;271;22644;-73
2024/01/14 01:01:14;;;;;;;29.40;17.70;;;;;;;-5.84;100.00;99526.86;87161;267;137874;-72
2024/01/14 01:03:17;;;;;;;30.80;18.80;;;;;;;-5.83;100.00;99523.38;87346;271;22573;-70
2024/01/14 01:05:19;;;;;;;33.00;16.20;;;;;;;-5.84;100.00;99514.96;87101;271;137234;-70
2024/01/14 01:07:21;;;;;;;26.80;16.90;;;;;;;-5.86;100.00;99506.57;87362;274;22573;-70
2024/01/14 01:09:23;;;;;;;38.60;19.90;;;;;;;-5.84;100.00;99511.51;87192;269;137300;-74
2024/01/14 01:11:24;;;;;;;31.20;16.70;;;;;;;-5.81;100.00;99508.49;87187;274;23899;-70
2024/01/14 01:13:26;;;;;;;27.10;16.70;;;;;;;-5.78;100.00;99501.57;87063;267;137437;-71
2024/01/14 01:15:28;;;;;;;29.80;17.20;;;;;;;-5.78;100.00;99501.20;87226;271;22565;-71
2024/01/14 01:17:31;;;;;;;24.50;15.40;;;;;;;-5.80;100.00;99493.90;86899;268;136626;-71
2024/01/14 01:19:33;;;;;;;26.80;17.20;;;;;;;-5.79;100.00;99488.96;87478;274;22621;-71
2024/01/14 01:21:35;;;;;;;28.70;18.10;;;;;;;-5.76;100.00;99485.17;87361;271;137222;-71
2024/01/14 01:23:37;;;;;;;34.40;18.20;;;;;;;-5.76;100.00;99490.33;87283;267;23998;-73
2024/01/14 01:25:39;;;;;;;31.80;18.00;;;;;;;-5.60;100.00;99491.52;87212;279;137184;-73
2024/01/14 01:27:42;;;;;;;29.60;18.50;;;;;;;-5.51;100.00;99490.36;87297;274;25158;-73
2024/01/14 01:29:44;;;;;;;27.90;17.50;;;;;;;-5.44;100.00;99482.78;86943;279;136928;-73
2024/01/14 01:31:47;;;;;;;25.80;17.30;;;;;;;-5.49;100.00;99477.23;87308;274;22577;-72
2024/01/14 01:33:56;;;;;;;29.90;16.10;;;;;;;-5.58;100.00;99471.10;87242;271;137377;-72
2024/01/14 01:35:58;;;;;;;33.20;18.30;;;;;;;-5.58;100.00;99467.81;87308;279;22635;-71
2024/01/14 01:38:00;;;;;;;24.40;17.90;;;;;;;-5.48;100.00;99466.45;87175;271;137435;-71
2024/01/14 01:40:03;;;;;;;29.70;19.10;;;;;;;-5.47;100.00;99465.86;87281;271;25207;-71
2024/01/14 01:42:06;;;;;;;34.60;20.00;;;;;;;-5.47;100.00;99462.90;87412;270;25149;-72
2024/01/14 01:44:08;;;;;;;23.90;15.10;;;;;;;-5.43;100.00;99458.85;87192;271;137246;-72
2024/01/14 01:46:10;;;;;;;26.20;16.70;;;;;;;-5.41;100.00;99452.23;87581;267;24859;-71
2024/01/14 01:48:13;;;;;;;24.00;17.90;;;;;;;-5.44;100.00;99453.02;87187;274;137812;-72
2024/01/14 01:50:20;;;;;;;29.30;18.60;;;;;;;-5.44;100.00;99444.35;87349;271;25677;-71
2024/01/14 01:52:22;;;;;;;28.30;18.60;;;;;;;-5.49;100.00;99441.73;87287;276;137385;-70
2024/01/14 01:54:28;;;;;;;32.50;17.10;;;;;;;-5.44;100.00;99444.84;87295;271;24081;-72
2024/01/14 01:56:31;;;;;;;27.80;19.10;;;;;;;-5.45;100.00;99438.01;87132;271;137163;-71
2024/01/14 01:58:33;;;;;;;24.70;16.70;;;;;;;-5.42;100.00;99431.91;87219;270;22554;-72
2024/01/14 02:00:38;;;;;;;22.00;15.00;;;;;;;-5.40;100.00;99428.45;87435;278;137842;-73
2024/01/14 02:02:42;;;;;;;28.50;16.90;;;;;;;-5.38;100.00;99432.00;87421;278;25708;-74
2024/01/14 02:04:45;;;;;;;30.50;15.80;;;;;;;-5.39;100.00;99423.77;87351;263;137088;-71
2024/01/14 02:06:48;;;;;;;26.80;15.50;;;;;;;-5.42;100.00;99423.60;87098;268;25182;-71
2024/01/14 02:08:50;;;;;;;21.70;14.50;;;;;;;-5.44;100.00;99416.48;87391;274;138081;-72
2024/01/14 02:10:52;;;;;;;25.20;18.50;;;;;;;-5.39;100.00;99419.92;87433;278;24497;-72
2024/01/14 02:12:56;;;;;;;27.60;15.20;;;;;;;-5.35;100.00;99415.51;87149;271;137238;-72
2024/01/14 02:14:57;;;;;;;26.70;16.50;;;;;;;-5.36;100.00;99409.84;87270;268;22553;-70
2024/01/14 02:16:59;;;;;;;25.00;16.70;;;;;;;-5.33;100.00;99406.87;87172;267;137206;-71
2024/01/14 02:19:04;;;;;;;27.60;17.30;;;;;;;-5.36;100.00;99403.56;87373;271;22562;-73
2024/01/14 02:21:08;;;;;;;21.00;15.80;;;;;;;-5.31;100.00;99397.36;87275;274;137176;-72
2024/01/14 02:23:16;;;;;;;25.30;15.90;;;;;;;-5.30;100.00;99396.90;87352;278;23453;-70
2024/01/14 02:25:18;;;;;;;25.10;16.20;;;;;;;-5.21;100.00;99391.33;87340;275;137224;-71
2024/01/14 02:27:21;;;;;;;23.90;15.80;;;;;;;-5.18;100.00;99389.13;87295;271;25255;-70
2024/01/14 02:29:23;;;;;;;26.60;17.60;;;;;;;-5.16;100.00;99391.08;87173;271;137201;-71
2024/01/14 02:31:26;;;;;;;26.10;17.10;;;;;;;-5.10;100.00;99388.20;87503;267;22563;-72
2024/01/14 02:33:28;;;;;;;24.90;16.60;;;;;;;-5.07;100.00;99384.41;87178;268;136887;-72
2024/01/14 02:35:30;;;;;;;27.80;16.80;;;;;;;-5.08;100.00;99374.89;87553;278;22567;-75
2024/01/14 02:37:33;;;;;;;28.20;16.20;;;;;;;-5.04;100.00;99371.70;87004;280;137645;-73
2024/01/14 02:39:35;;;;;;;24.00;16.00;;;;;;;-5.03;100.00;99369.48;87451;278;22581;-72
2024/01/14 02:41:38;;;;;;;24.80;17.50;;;;;;;-4.97;100.00;99371.02;86962;272;137266;-70
2024/01/14 02:43:40;;;;;;;22.50;15.40;;;;;;;-5.08;100.00;99366.60;87216;274;22568;-74
2024/01/14 02:45:42;;;;;;;30.30;19.40;;;;;;;-4.98;100.00;99358.08;87228;267;137177;-70
2024/01/14 02:47:44;;;;;;;25.60;16.50;;;;;;;-4.85;100.00;99353.67;87362;263;22583;-70
2024/01/14 02:49:46;;;;;;;25.30;16.30;;;;;;;-4.78;100.00;99351.21;87098;271;138608;-72
2024/01/14 02:51:49;;;;;;;21.20;15.60;;;;;;;-4.73;100.00;99347.18;87435;275;22530;-70
2024/01/14 02:53:51;;;;;;;26.70;17.90;;;;;;;-4.74;100.00;99350.91;87278;278;139193;-72
2024/01/14 02:55:53;;;;;;;28.30;17.70;;;;;;;-4.72;100.00;99342.43;87203;267;25589;-72
2024/01/14 02:57:55;;;;;;;32.50;18.90;;;;;;;-4.72;100.00;99340.55;87169;271;138511;-72
2024/01/14 02:59:56;;;;;;;25.40;17.20;;;;;;;-4.75;100.00;99340.23;87173;270;24046;-72
2024/01/14 03:01:58;;;;;;;26.40;16.70;;;;;;;-4.82;100.00;99333.66;87304;271;137917;-71
2024/01/14 03:04:00;;;;;;;32.00;19.80;;;;;;;-4.83;100.00;99326.63;87284;271;22664;-71
2024/01/14 03:06:02;;;;;;;28.40;17.30;;;;;;;-4.79;100.00;99323.77;87301;271;22561;-71
2024/01/14 03:08:05;;;;;;;28.00;18.50;;;;;;;-4.92;100.00;99318.64;87242;266;139195;-71
2024/01/14 03:10:07;;;;;;;25.20;17.20;;;;;;;-4.93;100.00;99317.00;87210;278;23967;-71
2024/01/14 03:12:09;;;;;;;26.20;17.30;;;;;;;-4.96;100.00;99316.52;87149;270;137414;-71
2024/01/14 03:14:11;;;;;;;25.30;17.20;;;;;;;-5.00;100.00;99313.66;87281;271;22592;-70
2024/01/14 03:16:13;;;;;;;24.50;17.00;;;;;;;-4.99;100.00;99311.23;87196;267;137253;-71
2024/01/14 03:18:16;;;;;;;27.40;17.10;;;;;;;-5.00;100.00;99306.77;87290;271;24043;-71
2024/01/14 03:20:18;;;;;;;22.80;16.50;;;;;;;-5.00;100.00;99306.09;87250;274;138824;-71
2024/01/14 03:22:20;;;;;;;30.10;18.10;;;;;;;-5.00;100.00;99304.84;87126;263;23685;-69
2024/01/14 03:24:22;;;;;;;25.90;16.30;;;;;;;-4.98;100.00;99303.14;87059;270;137283;-72
2024/01/14 03:26:24;;;;;;;23.40;16.70;;;;;;;-4.94;100.00;99300.93;87216;278;24155;-71
2024/01/14 03:28:26;;;;;;;24.50;17.30;;;;;;;-4.92;100.00;99296.11;87107;267;137701;-71
2024/01/14 03:30:28;;;;;;;33.40;18.00;;;;;;;-4.88;100.00;99294.28;87248;278;24145;-70
2024/01/14 03:32:30;;;;;;;27.10;16.80;;;;;;;-4.85;100.00;99285.20;87166;271;137225;-71
2024/01/14 03:34:31;;;;;;;32.60;20.90;;;;;;;-4.81;100.00;99286.43;87258;270;24013;-72
2024/01/14 03:36:35;;;;;;;27.40;19.30;;;;;;;-4.68;100.00;99276.42;87317;274;138569;-73
2024/01/14 03:38:37;;;;;;;26.10;18.00;;;;;;;-4.73;100.00;99272.34;87289;278;24040;-71
2024/01/14 03:40:38;;;;;;;25.70;17.20;;;;;;;-4.76;100.00;99271.02;87165;271;137031;-71
2024/01/14 03:42:40;;;;;;;26.20;16.50;;;;;;;-4.75;100.00;99273.69;87132;274;22605;-70
2024/01/14 03:44:44;;;;;;;28.60;17.70;;;;;;;-4.75;100.00;99269.88;87159;266;137056;-73
2024/01/14 03:46:46;;;;;;;29.00;17.70;;;;;;;-4.77;100.00;99267.95;87352;271;22555;-71
2024/01/14 03:48:48;;;;;;;31.20;17.70;;;;;;;-4.79;100.00;99262.58;87214;274;137255;-71
2024/01/14 03:50:50;;;;;;;22.40;16.10;;;;;;;-4.76;100.00;99258.30;87308;263;22598;-71
2024/01/14 03:52:52;;;;;;;22.80;16.30;;;;;;;-4.78;100.00;99261.96;87169;271;137168;-70
2024/01/14 03:54:54;;;;;;;27.60;18.00;;;;;;;-4.82;100.00;99257.08;87388;278;22562;-68
2024/01/14 03:56:56;;;;;;;25.40;18.00;;;;;;;-4.81;100.00;99256.10;87211;274;137018;-68
2024/01/14 03:59:00;;;;;;;26.30;16.50;;;;;;;-4.79;100.00;99256.84;87322;263;22649;-70
2024/01/14 04:01:02;;;;;;;31.70;18.10;;;;;;;-4.79;100.00;99251.25;87273;278;136887;-68
2024/01/14 04:03:04;;;;;;;27.80;19.30;;;;;;;-4.81;100.00;99248.30;87398;271;22566;-67
2024/01/14 04:05:07;;;;;;;25.30;16.00;;;;;;;-4.77;100.00;99248.20;87161;266;137076;-69
2024/01/14 04:07:09;;;;;;;27.30;19.60;;;;;;;-4.73;100.00;99257.95;87370;274;22722;-69
2024/01/14 04:09:11;;;;;;;23.40;16.80;;;;;;;-4.68;100.00;99249.73;87265;274;137149;-71
2024/01/14 04:11:13;;;;;;;23.00;16.00;;;;;;;-4.62;100.00;99244.60;87308;273;22635;-71
2024/01/14 04:13:14;;;;;;;27.90;18.70;;;;;;;-4.58;100.00;99240.98;87200;270;137078;-72
2024/01/14 04:15:21;;;;;;;22.60;17.20;;;;;;;-4.56;100.00;99236.35;87316;271;24790;-72
2024/01/14 04:17:23;;;;;;;25.20;18.00;;;;;;;-4.54;100.00;99235.29;87225;274;137328;-70
2024/01/14 04:19:25;;;;;;;26.80;18.20;;;;;;;-4.52;100.00;99232.17;87400;266;25159;-73
2024/01/14 04:21:27;;;;;;;25.90;16.60;;;;;;;-4.48;100.00;99228.44;87213;270;137226;-70
2024/01/14 04:23:29;;;;;;;24.60;17.10;;;;;;;-4.45;100.00;99228.38;87327;278;24117;-70
2024/01/14 04:25:30;;;;;;;26.20;16.80;;;;;;;-4.44;100.00;99227.48;87218;270;137415;-70
2024/01/14 04:27:37;;;;;;;27.00;17.00;;;;;;;-4.41;100.00;99223.08;87409;270;23736;-72
2024/01/14 04:29:40;;;;;;;29.10;18.30;;;;;;;-4.40;100.00;99219.20;87286;266;137068;-74
2024/01/14 04:31:41;;;;;;;25.60;18.30;;;;;;;-4.40;100.00;99213.23;87388;270;25202;-73
2024/01/14 04:33:45;;;;;;;25.40;17.00;;;;;;;-4.39;100.00;99211.10;87397;269;137063;-68
2024/01/14 04:35:47;;;;;;;24.70;17.10;;;;;;;-4.36;100.00;99211.05;87335;270;22638;-69
2024/01/14 04:37:49;;;;;;;24.60;16.60;;;;;;;-4.37;100.00;99207.10;86892;270;336872;-70
2024/01/14 04:39:50;;;;;;;26.80;18.60;;;;;;;-4.34;100.00;99206.04;87295;274;22568;-72
2024/01/14 04:41:53;;;;;;;28.50;18.60;;;;;;;-4.31;100.00;99205.26;87214;269;138705;-72
2024/01/14 04:43:55;;;;;;;27.50;20.10;;;;;;;-4.26;100.00;99204.20;87347;266;22584;-71
2024/01/14 04:45:56;;;;;;;25.30;16.70;;;;;;;-4.24;100.00;99206.63;87134;278;137803;-70
2024/01/14 04:47:59;;;;;;;25.80;16.60;;;;;;;-4.24;100.00;99201.04;87331;278;22718;-71
2024/01/14 04:50:02;;;;;;;26.20;17.00;;;;;;;-4.24;100.00;99199.52;87226;266;137248;-69
2024/01/14 04:52:05;;;;;;;24.30;16.80;;;;;;;-4.23;100.00;99195.65;87228;269;137684;-69
2024/01/14 04:54:07;;;;;;;28.00;18.20;;;;;;;-4.25;100.00;99194.21;87326;270;23722;-70
2024/01/14 04:56:09;;;;;;;24.40;17.00;;;;;;;-4.23;100.00;99188.19;87157;274;137624;-72
2024/01/14 04:58:11;;;;;;;26.30;15.60;;;;;;;-4.21;100.00;99185.38;87351;269;24311;-72
2024/01/14 05:00:14;;;;;;;24.40;16.60;;;;;;;-4.17;100.00;99182.30;87224;274;137907;-71
2024/01/14 05:02:16;;;;;;;25.50;17.90;;;;;;;-4.15;100.00;99175.03;87027;270;23904;-69
2024/01/14 05:04:18;;;;;;;24.60;15.60;;;;;;;-4.09;100.00;99177.48;87028;267;137202;-72
2024/01/14 05:06:20;;;;;;;26.80;18.10;;;;;;;-3.98;100.00;99173.16;87145;269;22588;-70
2024/01/14 05:08:22;;;;;;;22.60;16.10;;;;;;;-3.97;100.00;99169.08;86976;261;137425;-73
2024/01/14 05:10:25;;;;;;;22.70;17.00;;;;;;;-3.94;100.00;99167.79;87325;266;22558;-69
2024/01/14 05:12:26;;;;;;;28.90;17.90;;;;;;;-3.92;100.00;99165.70;86963;270;136973;-70
2024/01/14 05:14:28;;;;;;;27.90;18.60;;;;;;;-3.87;100.00;99163.95;87198;271;22655;-68
2024/01/14 05:16:30;;;;;;;26.00;17.00;;;;;;;-3.81;100.00;99165.48;87052;267;137455;-71
2024/01/14 05:18:32;;;;;;;23.20;15.90;;;;;;;-3.84;100.00;99162.45;87182;274;25155;-69
2024/01/14 05:20:34;;;;;;;28.50;19.20;;;;;;;-3.89;100.00;99163.55;87056;269;137105;-70
2024/01/14 05:22:36;;;;;;;25.80;17.30;;;;;;;-3.87;100.00;99166.54;87094;269;22602;-69
2024/01/14 05:24:41;;;;;;;23.90;16.30;;;;;;;-3.84;100.00;99158.50;86950;269;137239;-70
2024/01/14 05:26:43;;;;;;;25.40;16.80;;;;;;;-3.79;100.00;99153.36;87104;266;23783;-69
2024/01/14 05:28:45;;;;;;;22.20;16.30;;;;;;;-3.69;100.00;99146.98;86996;266;137332;-70
2024/01/14 05:30:47;;;;;;;28.60;18.50;;;;;;;-3.58;100.00;99149.55;87130;274;23989;-70
2024/01/14 05:32:49;;;;;;;26.20;17.50;;;;;;;-3.64;100.00;99147.34;87094;277;137094;-71
2024/01/14 05:34:51;;;;;;;24.10;15.00;;;;;;;-3.68;100.00;99148.66;87126;270;22559;-71
2024/01/14 05:36:53;;;;;;;22.60;15.60;;;;;;;-3.43;100.00;99144.52;87086;277;136936;-70
2024/01/14 05:38:55;;;;;;;24.00;16.00;;;;;;;-3.49;100.00;99146.56;87184;270;25779;-72
2024/01/14 05:40:57;;;;;;;27.60;18.30;;;;;;;-3.55;100.00;99148.64;87136;270;137229;-70
2024/01/14 05:42:58;;;;;;;20.80;15.30;;;;;;;-3.57;100.00;99151.07;87216;274;22591;-70
2024/01/14 05:45:00;;;;;;;22.80;16.50;;;;;;;-3.53;100.00;99150.77;87076;275;137440;-71
2024/01/14 05:47:03;;;;;;;26.00;17.00;;;;;;;-3.47;100.00;99151.14;87076;267;22735;-69
2024/01/14 05:49:04;;;;;;;27.80;18.10;;;;;;;-3.46;100.00;99153.77;86937;275;136769;-70
2024/01/14 05:51:07;;;;;;;26.30;18.40;;;;;;;-3.45;100.00;99153.05;87425;266;22713;-74
2024/01/14 05:53:09;;;;;;;26.80;17.30;;;;;;;-3.49;100.00;99150.57;86920;266;136576;-70
2024/01/14 05:55:10;;;;;;;24.00;16.90;;;;;;;-3.56;100.00;99150.10;87010;273;22573;-71
2024/01/14 05:57:12;;;;;;;26.30;18.50;;;;;;;-3.60;100.00;99148.89;86894;273;136973;-70
2024/01/14 05:59:14;;;;;;;28.30;18.40;;;;;;;-3.64;100.00;99153.54;88063;266;22637;-73
2024/01/14 06:01:16;;;;;;;28.90;18.90;;;;;;;-3.65;100.00;99148.98;86870;277;136438;-73
2024/01/14 06:03:18;;;;;;;24.30;16.60;;;;;;;-3.55;100.00;99147.77;86880;270;22542;-71
2024/01/14 06:05:21;;;;;;;25.60;16.80;;;;;;;-3.46;100.00;99145.95;86840;269;138459;-73
2024/01/14 06:07:25;;;;;;;28.00;18.30;;;;;;;-3.43;100.00;99149.91;86952;269;24135;-73
2024/01/14 06:09:27;;;;;;;28.40;19.80;;;;;;;-3.47;100.00;99150.99;86977;274;137202;-68
2024/01/14 06:11:29;;;;;;;27.70;17.50;;;;;;;-3.51;100.00;99150.69;87119;270;24001;-70
2024/01/14 06:13:31;;;;;;;25.00;17.70;;;;;;;-3.46;100.00;99149.98;89875;266;137704;-68
2024/01/14 06:15:33;;;;;;;26.70;17.80;;;;;;;-3.34;100.00;99151.92;90125;261;22354;-68
2024/01/14 06:17:35;;;;;;;27.40;17.80;;;;;;;-3.26;100.00;99151.14;88825;273;136853;-69
2024/01/14 06:19:36;;;;;;;28.20;18.30;;;;;;;-3.21;100.00;99151.16;87172;270;22559;-70
2024/01/14 06:21:43;;;;;;;27.00;18.50;;;;;;;-3.25;100.00;99152.73;87111;269;137957;-68
2024/01/14 06:23:45;;;;;;;;;;;;;;;-3.31;100.00;99148.38;87362;269;22544;-69
2024/01/14 06:25:47;;;;;;;24.50;17.10;;;;;;;-3.34;100.00;99150.01;87098;264;122974;-69
2024/01/14 06:27:50;;;;;;;25.20;17.50;;;;;;;-3.25;100.00;99149.64;87227;260;22612;-66
2024/01/14 06:29:52;;;;;;;29.80;17.40;;;;;;;-3.15;100.00;99148.23;87000;270;138597;-70
2024/01/14 06:31:54;;;;;;;26.70;19.00;;;;;;;-3.08;100.00;99142.80;87630;270;22597;-70
2024/01/14 06:33:57;;;;;;;29.80;18.60;;;;;;;-3.07;100.00;99137.87;87073;268;136360;-66
2024/01/14 06:35:59;;;;;;;28.60;18.70;;;;;;;-3.12;100.00;99138.10;87277;273;22535;-70
2024/01/14 06:38:01;;;;;;;27.80;19.60;;;;;;;-3.15;100.00;99137.61;87192;274;136275;-68
2024/01/14 06:40:05;;;;;;;28.70;19.40;;;;;;;-3.14;100.00;99132.55;87698;270;137220;-66
2024/01/14 06:42:06;;;;;;;26.70;17.80;;;;;;;-3.04;100.00;99127.02;87619;274;25199;-68
2024/01/14 06:44:09;;;;;;;28.30;19.30;;;;;;;-2.93;100.00;99126.90;87051;271;137418;-67
2024/01/14 06:46:10;;;;;;;23.30;15.80;;;;;;;-2.85;100.00;99125.00;87165;266;24045;-70
2024/01/14 06:48:12;;;;;;;25.70;18.80;;;;;;;-2.82;100.00;99127.18;87034;266;136961;-70
2024/01/14 06:50:14;;;;;;;28.40;19.10;;;;;;;-2.85;100.00;99124.34;87185;270;22608;-69
2024/01/14 06:52:22;;;;;;;27.30;18.60;;;;;;;-2.87;100.00;99124.31;87094;262;136634;-69
2024/01/14 06:54:24;;;;;;;28.70;18.40;;;;;;;-2.86;100.00;99123.73;88957;270;23748;-70
2024/01/14 06:56:26;;;;;;;26.40;18.20;;;;;;;-2.81;100.00;99125.23;87256;269;138603;-67
2024/01/14 06:58:29;;;;;;;28.50;18.90;;;;;;;-2.73;100.00;99122.62;87327;277;22576;-66
2024/01/14 07:00:32;;;;;;;27.90;17.00;;;;;;;-2.70;100.00;99121.30;87154;277;138520;-68
2024/01/14 07:02:34;;;;;;;26.90;18.80;;;;;;;-2.69;100.00;99118.96;87220;274;22679;-68
2024/01/14 07:04:36;;;;;;;26.00;18.20;;;;;;;-2.70;100.00;99119.25;87236;270;135979;-68
2024/01/14 07:06:39;;;;;;;29.00;19.50;;;;;;;-2.74;100.00;99118.02;87099;270;25089;-69
2024/01/14 07:08:42;;;;;;;32.60;21.30;;;;;;;-2.79;100.00;99115.63;87452;270;136562;-67
2024/01/14 07:10:44;;;;;;;33.30;20.20;;;;;;;-2.75;100.00;99112.81;87335;271;25221;-68
2024/01/14 07:12:46;;;;;;;29.30;19.70;;;;;;;-2.61;100.00;99110.63;87074;277;137413;-69
2024/01/14 07:14:48;;;;;;;29.70;19.70;;;;;;;-2.49;100.00;99110.62;87261;273;22574;-68
2024/01/14 07:16:50;;;;;;;24.40;16.00;;;;;;;-2.46;100.00;99111.86;87077;263;137209;-66
2024/01/14 07:18:52;;;;;;;27.20;18.40;;;;;;;-2.51;100.00;99106.66;87221;270;23014;-68
2024/01/14 07:20:54;;;;;;;30.50;18.50;;;;;;;-2.52;100.00;99103.55;87376;274;136541;-68
2024/01/14 07:22:56;;;;;;;26.40;17.60;;;;;;;-2.52;100.00;99107.89;87249;270;23875;-66
2024/01/14 07:25:18;;;;;;;32.30;21.40;;;;;;;-2.42;100.00;99101.76;87200;277;137147;-70
2024/01/14 07:27:20;;;;;;;26.80;18.80;;;;;;;-2.30;100.00;99098.64;87236;270;22557;-68
2024/01/14 07:29:21;;;;;;;30.40;18.20;;;;;;;-2.23;100.00;99091.80;87093;270;136692;-69
2024/01/14 07:31:28;;;;;;;24.00;16.10;;;;;;;-2.25;100.00;99091.98;87222;266;23999;-69
2024/01/14 07:33:30;;;;;;;25.50;18.60;;;;;;;-2.27;100.00;99089.66;87241;269;136653;-70
2024/01/14 07:35:32;;;;;;;24.30;15.30;;;;;;;-2.25;100.00;99086.42;87235;266;22654;-67
2024/01/14 07:37:35;;;;;;;24.20;16.50;;;;;;;-2.14;100.00;99086.45;87105;267;136875;-69
2024/01/14 07:39:37;;;;;;;26.30;17.40;;;;;;;-2.02;100.00;99077.56;87244;274;25255;-69
2024/01/14 07:41:39;;;;;;;25.30;19.00;;;;;;;-1.87;100.00;99076.04;87373;269;137123;-70
2024/01/14 07:43:44;;;;;;;29.20;18.20;;;;;;;-1.87;100.00;99074.27;87092;278;22626;-68
2024/01/14 07:45:46;;;;;;;26.50;18.90;;;;;;;-1.89;100.00;99076.23;87228;268;140641;-68
2024/01/14 07:47:47;;;;;;;26.30;17.20;;;;;;;-1.88;100.00;99078.88;87180;268;22955;-69
2024/01/14 07:49:49;;;;;;;19.20;14.70;;;;;;;-1.82;100.00;99076.91;87024;274;138043;-68
2024/01/14 07:51:51;;;;;;;25.00;17.90;;;;;;;-1.71;100.00;99075.98;86991;270;22673;-69
2024/01/14 07:53:53;;;;;;;24.80;18.00;;;;;;;-1.61;100.00;99076.95;86992;270;137155;-68
2024/01/14 07:55:55;;;;;;;23.80;17.10;;;;;;;-1.51;100.00;99077.61;87152;274;22575;-70
2024/01/14 07:57:57;;;;;;;27.40;18.40;;;;;;;-1.51;100.00;99076.37;87005;270;136753;-69
2024/01/14 07:59:59;;;;;;;23.70;17.10;;;;;;;-1.51;100.00;99076.38;87158;269;22559;-68
2024/01/14 08:02:02;;;;;;;24.70;17.30;;;;;;;-1.49;100.00;99078.33;86890;277;137377;-71
2024/01/14 08:04:04;;;;;;;29.00;18.70;;;;;;;-1.45;100.00;99076.16;86932;269;137252;-69
2024/01/14 08:06:06;;;;;;;21.00;15.40;;;;;;;-1.32;100.00;99073.57;87126;274;22560;-69
2024/01/14 08:08:08;;;;;;;22.70;17.10;;;;;;;-1.22;100.00;99073.54;87130;274;137417;-69
2024/01/14 08:10:11;;;;;;;27.60;18.80;;;;;;;-1.09;100.00;99073.82;87099;270;23761;-70
2024/01/14 08:12:13;;;;;;;26.80;17.40;;;;;;;-1.08;100.00;99075.01;86970;273;136611;-69
2024/01/14 08:14:15;;;;;;;25.50;18.30;;;;;;;-1.14;100.00;99073.50;87127;269;24062;-71
2024/01/14 08:16:16;;;;;;;22.80;17.20;;;;;;;-1.18;100.00;99072.80;86909;269;138164;-69
2024/01/14 08:18:19;;;;;;;22.60;17.10;;;;;;;-1.14;100.00;99075.00;87047;261;24064;-69
2024/01/14 08:20:22;;;;;;;23.60;16.20;;;;;;;-0.97;100.00;99072.59;87736;278;137589;-70
2024/01/14 08:22:24;;;;;;;21.90;16.30;;;;;;;-0.82;100.00;99071.82;87402;269;24058;-70
2024/01/14 08:24:26;;;;;;;24.70;16.80;;;;;;;-0.75;100.00;99076.27;86953;269;136775;-69
2024/01/14 08:26:27;;;;;;;24.70;17.80;;;;;;;-0.77;100.00;99069.79;87121;270;22799;-70
2024/01/14 08:28:32;;;;;;;23.20;17.20;;;;;;;-0.82;100.00;99069.86;86954;267;137390;-70
2024/01/14 08:30:34;;;;;;;24.90;18.10;;;;;;;-0.81;100.00;99066.89;87411;266;25157;-70
2024/01/14 08:32:37;;;;;;;24.90;17.10;;;;;;;-0.72;100.00;99070.23;86986;270;142348;-70
2024/01/14 08:34:38;;;;;;;26.50;18.20;;;;;;;-0.60;100.00;99066.63;87195;274;22577;-69
2024/01/14 08:36:41;;;;;;;23.80;17.50;;;;;;;-0.50;100.00;99064.27;86810;270;136990;-70
2024/01/14 08:39:46;;;;;;;25.90;17.40;;;;;;;-0.72;100.00;99063.75;84892;304;604216;-69
2024/01/14 08:41:48;;;;;;;22.80;16.40;;;;;;;-0.68;100.00;99061.74;85869;291;136801;-69
2024/01/14 08:43:50;;;;;;;23.60;15.70;;;;;;;-0.60;100.00;99059.11;88855;287;22339;-68
2024/01/14 08:45:53;;;;;;;22.00;16.80;;;;;;;-0.59;100.00;99054.25;89793;268;135798;-69
2024/01/14 08:47:55;;;;;;;24.00;14.80;;;;;;;-0.50;100.00;99051.15;89726;294;22440;-68
2024/01/14 08:49:56;;;;;;;20.80;15.50;;;;;;;-0.40;100.00;99054.74;89794;265;137170;-68
2024/01/14 08:52:01;;;;;;;19.40;14.90;;;;;;;-0.33;100.00;99051.74;87984;272;22535;-68
2024/01/14 08:54:03;;;;;;;21.00;13.90;;;;;;;-0.28;100.00;99048.48;86927;271;392980;-70
2024/01/14 08:56:05;;;;;;;28.00;17.60;;;;;;;-0.37;100.00;99046.58;86969;272;137067;-66
2024/01/14 08:58:08;;;;;;;25.00;15.80;;;;;;;-0.43;100.00;99042.55;87168;275;22922;-69
2024/01/14 09:00:11;;;;;;;22.00;14.30;;;;;;;-0.47;100.00;99040.45;87043;271;136071;-68
2024/01/14 09:02:14;;;;;;;23.40;16.00;;;;;;;-0.45;100.00;99040.20;87306;270;25186;-67
2024/01/14 09:04:16;;;;;;;19.60;12.30;;;;;;;-0.38;100.00;99028.52;87095;278;138078;-66
2024/01/14 09:06:18;;;;;;;21.50;13.50;;;;;;;-0.35;100.00;99029.85;87182;278;22615;-69
2024/01/14 09:08:20;;;;;;;17.70;13.60;;;;;;;-0.39;100.00;99030.73;87075;275;136309;-69
2024/01/14 09:10:22;;;;;;;17.60;13.10;;;;;;;-0.47;100.00;99029.53;87094;266;25218;-71
2024/01/14 09:12:24;;;;;;;17.80;12.70;;;;;;;-0.52;100.00;99030.98;87020;266;136735;-71
2024/01/14 09:14:26;;;;;;;17.50;13.30;;;;;;;-0.45;100.00;99030.09;87624;271;22575;-70
2024/01/14 09:16:28;;;;;;;16.90;12.40;;;;;;;-0.31;100.00;99017.70;87053;274;136761;-69
2024/01/14 09:18:29;;;;;;;17.20;13.00;;;;;;;-0.23;100.00;99019.14;87156;267;24039;-71
2024/01/14 09:20:32;;;;;;;17.80;12.10;;;;;;;-0.17;100.00;99015.48;87320;271;138010;-68